createdAt,value
2023-04-27T00:01:43.838Z,101708.09
2023-04-27T00:04:11.122Z,101716.63
2023-04-27T00:06:38.232Z,101707.28
2023-04-27T00:09:05.164Z,101708.88
2023-04-27T00:11:32.217Z,101705.28
2023-04-27T00:13:59.191Z,101703.28
2023-04-27T00:16:26.535Z,101713.88
2023-04-27T00:18:54.015Z,101711.59
2023-04-27T00:21:21.129Z,101704.47
2023-04-27T00:23:48.048Z,101703.75
2023-04-27T00:26:14.956Z,101718.97
2023-04-27T00:28:41.930Z,101720.00
2023-04-27T00:31:09.157Z,101725.69
2023-04-27T00:33:36.333Z,101724.47
2023-04-27T00:36:03.282Z,101729.25
2023-04-27T00:38:30.824Z,101721.28
2023-04-27T00:41:05.958Z,101706.72
2023-04-27T00:43:34.062Z,101702.41
2023-04-27T00:46:03.573Z,101694.50
2023-04-27T00:48:30.512Z,101710.41
2023-04-27T00:50:57.438Z,101701.25
2023-04-27T00:53:24.538Z,101693.06
2023-04-27T00:55:51.550Z,101688.34
2023-04-27T00:58:18.571Z,101689.84
2023-04-27T01:00:45.591Z,101699.00
2023-04-27T01:03:12.618Z,101688.06
2023-04-27T01:05:39.752Z,101681.91
2023-04-27T01:08:06.724Z,101687.53
2023-04-27T01:10:33.747Z,101686.50
2023-04-27T01:13:00.673Z,101677.22
2023-04-27T01:15:27.830Z,101681.50
2023-04-27T01:18:02.153Z,101670.81
2023-04-27T01:20:30.492Z,101668.31
2023-04-27T01:22:58.481Z,101668.13
2023-04-27T01:25:26.142Z,101678.53
2023-04-27T01:27:54.273Z,101684.56
2023-04-27T01:30:22.701Z,101683.38
2023-04-27T01:32:50.669Z,101681.81
2023-04-27T01:35:17.750Z,101670.97
2023-04-27T01:37:44.719Z,101668.81
2023-04-27T01:40:13.111Z,101664.00
2023-04-27T01:42:40.059Z,101667.09
2023-04-27T01:45:07.936Z,101673.41
2023-04-27T01:47:35.036Z,101674.84
2023-04-27T01:50:02.340Z,101665.91
2023-04-27T01:52:29.282Z,101664.44
2023-04-27T01:54:56.292Z,101664.88
2023-04-27T01:57:23.269Z,101660.13
2023-04-27T01:59:50.237Z,101651.56
2023-04-27T02:02:17.186Z,101668.13
2023-04-27T02:04:45.237Z,101646.06
2023-04-27T02:07:12.420Z,101641.13
2023-04-27T02:09:39.408Z,101636.44
2023-04-27T02:12:06.631Z,101637.41
2023-04-27T02:14:33.587Z,101636.31
2023-04-27T02:17:00.664Z,101630.25
2023-04-27T02:19:27.731Z,101648.50
2023-04-27T02:21:54.680Z,101652.88
2023-04-27T02:24:21.582Z,101647.00
2023-04-27T02:26:48.595Z,101643.97
2023-04-27T02:29:15.769Z,101640.38
2023-04-27T02:31:43.280Z,101642.19
2023-04-27T02:34:10.273Z,101634.06
2023-04-27T02:36:37.358Z,101644.31
2023-04-27T02:39:04.392Z,101635.19
2023-04-27T02:41:34.440Z,101639.09
2023-04-27T02:44:01.331Z,101636.56
2023-04-27T02:46:28.336Z,101653.00
2023-04-27T02:48:56.570Z,101652.63
2023-04-27T02:51:23.904Z,101650.41
2023-04-27T02:53:53.135Z,101650.75
2023-04-27T02:56:20.069Z,101657.28
2023-04-27T02:58:47.983Z,101662.00
2023-04-27T03:01:18.094Z,101655.63
2023-04-27T03:03:48.356Z,101662.09
2023-04-27T03:06:15.753Z,101661.44
2023-04-27T03:08:42.777Z,101659.19
2023-04-27T03:11:09.899Z,101661.13
2023-04-27T03:13:41.980Z,101664.97
2023-04-27T03:16:12.008Z,101665.91
2023-04-27T03:18:40.288Z,101679.16
2023-04-27T03:21:12.227Z,101674.09
2023-04-27T03:23:40.005Z,101672.94
2023-04-27T03:26:12.387Z,101667.16
2023-04-27T03:28:39.412Z,101656.91
2023-04-27T03:31:07.850Z,101663.00
2023-04-27T03:33:35.113Z,101661.50
2023-04-27T03:36:02.725Z,101669.41
2023-04-27T03:38:29.717Z,101662.72
2023-04-27T03:40:57.318Z,101650.22
2023-04-27T03:43:25.219Z,101653.09
2023-04-27T03:45:52.855Z,101651.75
2023-04-27T03:48:20.732Z,101660.44
2023-04-27T03:50:48.076Z,101664.56
2023-04-27T03:53:15.770Z,101663.63
2023-04-27T03:55:44.701Z,101671.88
2023-04-27T03:58:12.073Z,101673.44
2023-04-27T04:00:39.718Z,101674.66
2023-04-27T04:03:08.085Z,101669.97
2023-04-27T04:05:35.494Z,101674.31
2023-04-27T04:08:02.441Z,101670.13
2023-04-27T04:10:29.568Z,101667.66
2023-04-27T04:12:56.534Z,101663.38
2023-04-27T04:15:23.479Z,101665.19
2023-04-27T04:17:51.317Z,101674.88
2023-04-27T04:20:18.503Z,101673.31
2023-04-27T04:22:45.627Z,101679.66
2023-04-27T04:25:13.132Z,101675.41
2023-04-27T04:27:41.081Z,101670.84
2023-04-27T04:30:08.528Z,101678.31
2023-04-27T04:32:38.077Z,101674.19
2023-04-27T04:35:08.516Z,101685.34
2023-04-27T04:37:35.696Z,101683.97
2023-04-27T04:40:10.683Z,101694.72
2023-04-27T04:42:38.492Z,101697.91
2023-04-27T04:45:07.448Z,101693.38
2023-04-27T04:47:34.612Z,101704.09
2023-04-27T04:50:01.632Z,101698.84
2023-04-27T04:52:28.658Z,101699.81
2023-04-27T04:54:55.609Z,101701.03
2023-04-27T04:57:22.541Z,101709.81
2023-04-27T04:59:49.459Z,101716.06
2023-04-27T05:02:16.404Z,101716.81
2023-04-27T05:04:43.599Z,101716.75
2023-04-27T05:07:14.554Z,101705.91
2023-04-27T05:09:41.996Z,101716.59
2023-04-27T05:12:09.006Z,101718.41
2023-04-27T05:14:36.189Z,101723.50
2023-04-27T05:17:03.188Z,101712.81
2023-04-27T05:19:31.299Z,101715.81
2023-04-27T05:22:01.367Z,101728.63
2023-04-27T05:24:28.290Z,101718.00
2023-04-27T05:26:55.449Z,101717.06
2023-04-27T05:29:23.080Z,101712.03
2023-04-27T05:31:50.170Z,101717.19
2023-04-27T05:34:17.473Z,101721.84
2023-04-27T05:36:45.139Z,101723.66
2023-04-27T05:39:12.227Z,101726.16
2023-04-27T05:41:39.448Z,101717.03
2023-04-27T05:44:07.050Z,101723.75
2023-04-27T05:46:35.392Z,101720.25
2023-04-27T05:49:04.037Z,101732.22
2023-04-27T05:51:32.685Z,101732.28
2023-04-27T05:54:01.761Z,101729.78
2023-04-27T05:56:28.791Z,101733.31
2023-04-27T05:58:55.737Z,101730.53
2023-04-27T06:01:23.503Z,101734.53
2023-04-27T06:03:50.749Z,101734.63
2023-04-27T06:06:17.956Z,101735.72
2023-04-27T06:08:44.878Z,101738.84
2023-04-27T06:11:11.870Z,101725.72
2023-04-27T06:13:38.819Z,101724.28
2023-04-27T06:16:06.158Z,101726.09
2023-04-27T06:18:33.141Z,101728.31
2023-04-27T06:21:01.790Z,101721.38
2023-04-27T06:23:29.236Z,101716.13
2023-04-27T06:25:56.321Z,101707.75
2023-04-27T06:28:23.342Z,101719.78
2023-04-27T06:30:50.313Z,101725.72
2023-04-27T06:33:17.315Z,101719.97
2023-04-27T06:35:47.342Z,101729.72
2023-04-27T06:38:14.661Z,101732.22
2023-04-27T06:40:41.846Z,101724.59
2023-04-27T06:43:08.785Z,101728.63
2023-04-27T06:45:36.182Z,101725.53
2023-04-27T06:48:03.401Z,101721.69
2023-04-27T06:50:30.814Z,101724.78
2023-04-27T06:52:57.862Z,101723.94
2023-04-27T06:55:24.841Z,101710.81
2023-04-27T06:57:51.871Z,101716.41
2023-04-27T07:00:19.851Z,101717.69
2023-04-27T07:02:46.903Z,101706.25
2023-04-27T07:05:13.951Z,101710.19
2023-04-27T07:07:41.057Z,101702.09
2023-04-27T07:10:09.204Z,101720.41
2023-04-27T07:12:37.491Z,101724.53
2023-04-27T07:15:06.595Z,101717.13
2023-04-27T07:17:33.821Z,101717.34
2023-04-27T07:20:06.423Z,101719.81
2023-04-27T07:22:33.812Z,101713.13
2023-04-27T07:25:00.972Z,101708.53
2023-04-27T07:27:28.084Z,101709.22
2023-04-27T07:29:54.968Z,101713.88
2023-04-27T07:32:22.749Z,101713.97
2023-04-27T07:34:54.207Z,101709.97
2023-04-27T07:37:23.285Z,101707.34
2023-04-27T07:39:54.439Z,101715.88
2023-04-27T07:42:25.099Z,101716.03
2023-04-27T07:44:54.101Z,101710.88
2023-04-27T07:47:21.783Z,101711.28
2023-04-27T07:49:48.994Z,101698.16
2023-04-27T07:52:16.517Z,101705.06
2023-04-27T07:54:43.426Z,101703.22
2023-04-27T07:57:14.171Z,101706.41
2023-04-27T07:59:41.376Z,101713.38
2023-04-27T08:02:19.241Z,101707.28
2023-04-27T08:04:48.236Z,101702.13
2023-04-27T08:07:19.907Z,101711.00
2023-04-27T08:09:46.980Z,101700.78
2023-04-27T08:12:13.940Z,101699.84
2023-04-27T08:14:41.098Z,101709.59
2023-04-27T08:17:08.015Z,101719.56
2023-04-27T08:19:34.973Z,101719.13
2023-04-27T08:22:01.884Z,101709.59
2023-04-27T08:24:28.800Z,101701.97
2023-04-27T08:26:55.975Z,101696.00
2023-04-27T08:29:27.685Z,101695.44
2023-04-27T08:31:59.552Z,101691.59
2023-04-27T08:34:27.784Z,101686.91
2023-04-27T08:36:55.465Z,101689.59
2023-04-27T08:39:23.410Z,101685.03
2023-04-27T08:41:50.363Z,101687.19
2023-04-27T08:44:18.291Z,101695.03
2023-04-27T08:46:45.369Z,101707.66
2023-04-27T08:49:15.163Z,101708.94
2023-04-27T08:51:44.162Z,101718.78
2023-04-27T08:54:11.164Z,101714.28
2023-04-27T08:56:39.429Z,101716.53
2023-04-27T08:59:15.995Z,101724.03
2023-04-27T09:01:51.136Z,101709.91
2023-04-27T09:04:19.848Z,101702.56
2023-04-27T09:06:47.149Z,101687.94
2023-04-27T09:09:23.774Z,101702.88
2023-04-27T09:11:51.303Z,101711.72
2023-04-27T09:14:21.708Z,101708.22
2023-04-27T09:16:59.994Z,101703.94
2023-04-27T09:19:29.943Z,101719.94
2023-04-27T09:22:11.490Z,101710.03
2023-04-27T09:24:38.700Z,101704.06
2023-04-27T09:27:07.581Z,101701.28
2023-04-27T09:29:39.024Z,101712.19
2023-04-27T09:32:20.873Z,101696.38
2023-04-27T09:34:48.024Z,101693.88
2023-04-27T09:37:15.828Z,101684.28
2023-04-27T09:39:43.388Z,101688.56
2023-04-27T09:42:12.721Z,101694.56
2023-04-27T09:44:39.781Z,101691.28
2023-04-27T09:47:07.537Z,101684.59
2023-04-27T09:49:35.148Z,101698.66
2023-04-27T09:52:02.123Z,101683.34
2023-04-27T09:54:33.673Z,101683.34
2023-04-27T09:57:31.136Z,101686.75
2023-04-27T10:00:33.986Z,101680.63
2023-04-27T10:03:28.061Z,101679.56
2023-04-27T10:06:32.920Z,101677.25
2023-04-27T10:09:00.938Z,101682.59
2023-04-27T10:11:48.067Z,101680.13
2023-04-27T10:14:20.551Z,101667.47
2023-04-27T10:16:52.114Z,101663.66
2023-04-27T10:19:20.844Z,101656.53
2023-04-27T10:22:03.812Z,101675.09
2023-04-27T10:24:44.099Z,101652.75
2023-04-27T10:27:13.476Z,101656.78
2023-04-27T10:29:46.245Z,101652.59
2023-04-27T10:32:21.286Z,101655.31
2023-04-27T10:34:49.174Z,101646.50
2023-04-27T10:37:17.657Z,101649.34
2023-04-27T10:39:48.991Z,101637.53
2023-04-27T10:42:29.727Z,101624.13
2023-04-27T10:44:59.908Z,101625.09
2023-04-27T10:47:46.274Z,101620.19
2023-04-27T10:50:14.269Z,101610.03
2023-04-27T10:52:46.648Z,101607.56
2023-04-27T10:55:22.164Z,101601.34
2023-04-27T10:57:54.444Z,101611.59
2023-04-27T11:00:46.601Z,101616.50
2023-04-27T11:03:22.509Z,101601.03
2023-04-27T11:06:00.015Z,101617.50
2023-04-27T11:08:27.036Z,101611.03
2023-04-27T11:10:53.975Z,101609.72
2023-04-27T11:13:24.081Z,101605.34
2023-04-27T11:15:54.384Z,101609.78
2023-04-27T11:18:24.908Z,101607.78
2023-04-27T11:21:10.096Z,101606.56
2023-04-27T11:23:38.629Z,101597.03
2023-04-27T11:26:26.760Z,101606.91
2023-04-27T11:28:59.878Z,101598.63
2023-04-27T11:31:28.948Z,101595.25
2023-04-27T11:33:56.272Z,101595.50
2023-04-27T11:36:24.423Z,101595.81
2023-04-27T11:38:51.390Z,101582.66
2023-04-27T11:41:18.325Z,101571.16
2023-04-27T11:43:51.380Z,101575.69
2023-04-27T11:46:22.390Z,101573.44
2023-04-27T11:48:49.495Z,101567.34
2023-04-27T11:51:16.478Z,101562.22
2023-04-27T11:53:48.468Z,101567.25
2023-04-27T11:56:15.652Z,101556.53
2023-04-27T11:58:46.295Z,101556.66
2023-04-27T12:01:13.571Z,101565.13
2023-04-27T12:03:41.241Z,101558.13
2023-04-27T12:06:27.156Z,101549.28
2023-04-27T12:08:58.331Z,101547.03
2023-04-27T12:11:28.468Z,101538.66
2023-04-27T12:13:55.695Z,101542.41
2023-04-27T12:16:23.254Z,101538.28
2023-04-27T12:18:51.045Z,101537.16
2023-04-27T12:21:18.296Z,101538.56
2023-04-27T12:23:45.651Z,101537.75
2023-04-27T12:26:15.024Z,101530.06
2023-04-27T12:28:42.330Z,101536.75
2023-04-27T12:31:09.377Z,101529.88
2023-04-27T12:33:36.467Z,101531.81
2023-04-27T12:36:03.570Z,101518.88
2023-04-27T12:38:30.528Z,101522.59
2023-04-27T12:40:59.182Z,101509.72
2023-04-27T12:43:26.377Z,101499.03
2023-04-27T12:45:53.441Z,101511.13
2023-04-27T12:48:20.779Z,101502.09
2023-04-27T12:50:47.717Z,101498.88
2023-04-27T12:53:14.725Z,101490.31
2023-04-27T12:55:41.780Z,101492.38
2023-04-27T12:58:08.764Z,101485.06
2023-04-27T13:00:35.856Z,101480.81
2023-04-27T13:03:03.004Z,101488.06
2023-04-27T13:05:31.866Z,101482.78
2023-04-27T13:07:59.237Z,101492.25
2023-04-27T13:10:26.267Z,101487.00
2023-04-27T13:12:54.666Z,101484.56
2023-04-27T13:15:21.706Z,101492.81
2023-04-27T13:17:48.688Z,101485.59
2023-04-27T13:20:15.600Z,101480.72
2023-04-27T13:22:42.675Z,101487.56
2023-04-27T13:25:10.605Z,101497.22
2023-04-27T13:27:37.549Z,101495.16
2023-04-27T13:30:05.386Z,101489.78
2023-04-27T13:32:32.583Z,101491.19
2023-04-27T13:34:59.678Z,101477.81
2023-04-27T13:37:27.170Z,101468.31
2023-04-27T13:39:54.133Z,101465.94
2023-04-27T13:42:21.686Z,101481.03
2023-04-27T13:44:48.589Z,101470.03
2023-04-27T13:47:15.617Z,101467.06
2023-04-27T13:49:42.713Z,101464.28
2023-04-27T13:52:10.327Z,101464.09
2023-04-27T13:54:37.244Z,101454.59
2023-04-27T13:57:04.266Z,101442.03
2023-04-27T13:59:31.257Z,101445.03
2023-04-27T14:01:58.178Z,101433.53
2023-04-27T14:04:25.169Z,101431.91
2023-04-27T14:06:52.120Z,101431.63
2023-04-27T14:09:19.222Z,101424.72
2023-04-27T14:11:55.506Z,101413.59
2023-04-27T14:14:23.673Z,101415.81
2023-04-27T14:16:53.428Z,101413.56
2023-04-27T14:19:20.681Z,101416.31
2023-04-27T14:21:49.319Z,101413.25
2023-04-27T14:24:16.515Z,101419.13
2023-04-27T14:26:44.295Z,101411.13
2023-04-27T14:29:11.845Z,101409.06
2023-04-27T14:31:39.748Z,101414.09
2023-04-27T14:34:07.958Z,101418.09
2023-04-27T14:36:35.846Z,101415.03
2023-04-27T14:39:04.806Z,101405.03
2023-04-27T14:41:31.759Z,101410.06
2023-04-27T14:43:58.711Z,101410.44
2023-04-27T14:46:25.893Z,101398.34
2023-04-27T14:48:52.876Z,101396.53
2023-04-27T14:51:19.947Z,101384.06
2023-04-27T14:53:46.857Z,101383.09
2023-04-27T14:56:13.805Z,101372.84
2023-04-27T14:58:41.484Z,101369.69
2023-04-27T15:01:08.683Z,101359.97
2023-04-27T15:03:35.740Z,101366.00
2023-04-27T15:06:03.459Z,101354.63
2023-04-27T15:08:32.675Z,101355.31
2023-04-27T15:11:01.144Z,101359.97
2023-04-27T15:13:28.453Z,101356.63
2023-04-27T15:15:57.046Z,101348.84
2023-04-27T15:18:25.158Z,101348.94
2023-04-27T15:20:58.255Z,101361.53
2023-04-27T15:23:26.947Z,101363.44
2023-04-27T15:25:58.504Z,101364.34
2023-04-27T15:28:25.891Z,101361.25
2023-04-27T15:30:52.994Z,101351.78
2023-04-27T15:33:20.139Z,101335.53
2023-04-27T15:35:47.047Z,101337.84
2023-04-27T15:38:15.589Z,101327.78
2023-04-27T15:40:42.641Z,101314.72
2023-04-27T15:43:09.755Z,101318.66
2023-04-27T15:45:36.812Z,101319.72
2023-04-27T15:48:04.019Z,101316.69
2023-04-27T15:50:31.355Z,101317.75
2023-04-27T15:52:58.265Z,101323.47
2023-04-27T15:55:25.320Z,101301.09
2023-04-27T15:57:53.120Z,101307.63
2023-04-27T16:00:22.362Z,101301.91
2023-04-27T16:02:49.842Z,101305.06
2023-04-27T16:05:17.136Z,101304.13
2023-04-27T16:07:45.604Z,101312.59
2023-04-27T16:10:13.070Z,101300.72
2023-04-27T16:12:40.613Z,101291.31
2023-04-27T16:15:10.896Z,101293.25
2023-04-27T16:17:38.696Z,101275.09
2023-04-27T16:20:07.122Z,101269.41
2023-04-27T16:22:35.134Z,101266.59
2023-04-27T16:25:03.754Z,101250.06
2023-04-27T16:27:31.061Z,101247.50
2023-04-27T16:29:57.989Z,101248.16
2023-04-27T16:32:25.014Z,101239.56
2023-04-27T16:34:52.016Z,101229.97
2023-04-27T16:37:18.951Z,101204.97
2023-04-27T16:39:46.527Z,101204.28
2023-04-27T16:42:18.552Z,101214.13
2023-04-27T16:44:46.231Z,101226.16
2023-04-27T16:47:13.242Z,101230.00
2023-04-27T16:49:43.319Z,101235.75
2023-04-27T16:52:11.268Z,101229.53
2023-04-27T16:54:38.297Z,101212.31
2023-04-27T16:57:05.268Z,101225.78
2023-04-27T16:59:32.498Z,101220.47
2023-04-27T17:02:09.078Z,101211.00
2023-04-27T17:04:40.784Z,101214.47
2023-04-27T17:07:09.126Z,101222.91
2023-04-27T17:09:38.832Z,101226.19
2023-04-27T17:12:11.110Z,101237.94
2023-04-27T17:14:39.082Z,101228.13
2023-04-27T17:17:06.787Z,101218.84
2023-04-27T17:19:33.768Z,101211.84
2023-04-27T17:22:00.805Z,101217.44
2023-04-27T17:24:27.976Z,101211.41
2023-04-27T17:26:54.930Z,101222.03
2023-04-27T17:29:21.968Z,101227.88
2023-04-27T17:31:50.173Z,101229.94
2023-04-27T17:34:17.233Z,101232.63
2023-04-27T17:36:44.197Z,101230.75
2023-04-27T17:39:12.999Z,101223.63
2023-04-27T17:41:40.738Z,101230.31
2023-04-27T17:44:07.824Z,101234.13
2023-04-27T17:46:34.864Z,101231.19
2023-04-27T17:49:01.853Z,101225.34
2023-04-27T17:51:28.757Z,101236.22
2023-04-27T17:53:55.710Z,101238.34
2023-04-27T17:56:22.785Z,101235.25
2023-04-27T17:58:49.681Z,101228.28
2023-04-27T18:01:16.697Z,101229.69
2023-04-27T18:03:43.823Z,101235.41
2023-04-27T18:06:10.943Z,101230.84
2023-04-27T18:08:37.910Z,101225.81
2023-04-27T18:11:06.593Z,101235.34
2023-04-27T18:13:33.694Z,101225.22
2023-04-27T18:16:00.814Z,101225.34
2023-04-27T18:18:28.327Z,101215.28
2023-04-27T18:20:55.238Z,101214.38
2023-04-27T18:23:22.578Z,101208.44
2023-04-27T18:25:49.877Z,101210.84
2023-04-27T18:28:16.866Z,101195.72
2023-04-27T18:30:43.820Z,101211.81
2023-04-27T18:33:10.922Z,101208.81
2023-04-27T18:35:38.048Z,101202.94
2023-04-27T18:38:05.848Z,101199.06
2023-04-27T18:40:36.064Z,101196.91
2023-04-27T18:43:03.114Z,101196.91
2023-04-27T18:45:30.208Z,101191.28
2023-04-27T18:47:57.280Z,101194.97
2023-04-27T18:50:24.181Z,101193.34
2023-04-27T18:52:51.262Z,101185.84
2023-04-27T18:55:18.585Z,101181.19
2023-04-27T18:57:46.199Z,101173.16
2023-04-27T19:00:13.846Z,101183.25
2023-04-27T19:02:40.919Z,101184.41
2023-04-27T19:05:12.924Z,101185.03
2023-04-27T19:07:40.855Z,101172.78
2023-04-27T19:10:08.791Z,101169.69
2023-04-27T19:12:35.950Z,101178.41
2023-04-27T19:15:03.138Z,101178.56
2023-04-27T19:17:30.874Z,101174.03
2023-04-27T19:19:58.471Z,101178.19
2023-04-27T19:22:27.268Z,101180.66
2023-04-27T19:24:54.329Z,101181.53
2023-04-27T19:27:21.249Z,101181.69
2023-04-27T19:29:53.490Z,101192.44
2023-04-27T19:32:22.014Z,101192.81
2023-04-27T19:34:49.407Z,101180.44
2023-04-27T19:37:16.565Z,101183.84
2023-04-27T19:39:43.498Z,101184.56
2023-04-27T19:42:10.599Z,101186.66
2023-04-27T19:44:37.491Z,101198.41
2023-04-27T19:47:04.535Z,101187.56
2023-04-27T19:49:35.056Z,101194.69
2023-04-27T19:52:02.369Z,101189.75
2023-04-27T19:54:29.552Z,101184.75
2023-04-27T19:56:56.710Z,101181.41
2023-04-27T19:59:24.108Z,101173.81
2023-04-27T20:01:51.187Z,101169.97
2023-04-27T20:04:18.902Z,101163.88
2023-04-27T20:06:47.274Z,101155.53
2023-04-27T20:09:14.288Z,101151.50
2023-04-27T20:11:41.209Z,101136.53
2023-04-27T20:14:08.142Z,101138.13
2023-04-27T20:16:35.078Z,101132.94
2023-04-27T20:19:02.073Z,101114.59
2023-04-27T20:21:29.374Z,101105.31
2023-04-27T20:23:56.407Z,101105.44
2023-04-27T20:26:24.464Z,101113.91
2023-04-27T20:28:51.423Z,101106.50
2023-04-27T20:31:18.437Z,101111.59
2023-04-27T20:33:45.372Z,101115.81
2023-04-27T20:36:17.210Z,101116.34
2023-04-27T20:38:46.338Z,101096.00
2023-04-27T20:41:13.661Z,101102.97
2023-04-27T20:43:40.939Z,101104.53
2023-04-27T20:46:10.598Z,101114.41
2023-04-27T20:48:38.104Z,101103.88
2023-04-27T20:51:05.244Z,101104.59
2023-04-27T20:53:32.257Z,101096.78
2023-04-27T20:55:59.242Z,101089.72
2023-04-27T20:58:26.280Z,101088.59
2023-04-27T21:00:53.298Z,101092.69
2023-04-27T21:03:21.040Z,101088.75
2023-04-27T21:05:49.189Z,101084.13
2023-04-27T21:08:16.963Z,101064.91
2023-04-27T21:10:44.648Z,101060.38
2023-04-27T21:13:11.746Z,101054.25
2023-04-27T21:15:38.984Z,101044.81
2023-04-27T21:18:07.882Z,101052.34
2023-04-27T21:20:36.401Z,101057.50
2023-04-27T21:23:03.564Z,101050.97
2023-04-27T21:25:30.909Z,101038.69
2023-04-27T21:27:57.898Z,101029.66
2023-04-27T21:30:24.931Z,101027.53
2023-04-27T21:32:52.032Z,101028.75
2023-04-27T21:35:19.034Z,101033.38
2023-04-27T21:37:46.054Z,101033.97
2023-04-27T21:40:13.423Z,101036.25
2023-04-27T21:42:40.782Z,101032.28
2023-04-27T21:45:08.737Z,101029.81
2023-04-27T21:47:35.766Z,101026.22
2023-04-27T21:50:03.279Z,101019.94
2023-04-27T21:52:30.177Z,101007.53
2023-04-27T21:54:57.254Z,101019.53
2023-04-27T21:57:24.159Z,101028.16
2023-04-27T21:59:51.089Z,101030.00
2023-04-27T22:02:18.046Z,101026.63
2023-04-27T22:04:45.447Z,101031.19
2023-04-27T22:07:12.732Z,101026.44
2023-04-27T22:09:39.674Z,101019.72
2023-04-27T22:12:07.014Z,101009.97
2023-04-27T22:14:33.996Z,101013.09
2023-04-27T22:17:01.102Z,101020.16
2023-04-27T22:19:28.814Z,101014.44
2023-04-27T22:21:56.137Z,101013.25
2023-04-27T22:24:23.755Z,101007.94
2023-04-27T22:26:50.930Z,101006.03
2023-04-27T22:29:18.148Z,101002.44
2023-04-27T22:31:45.650Z,101007.16
2023-04-27T22:34:13.285Z,101016.28
2023-04-27T22:36:41.318Z,101018.91
2023-04-27T22:39:09.012Z,101027.97
2023-04-27T22:41:36.159Z,101028.31
2023-04-27T22:44:03.153Z,101024.16
2023-04-27T22:46:30.130Z,101032.78
2023-04-27T22:48:58.634Z,101033.09
2023-04-27T22:51:27.258Z,101024.13
2023-04-27T22:53:54.708Z,101014.47
2023-04-27T22:56:22.676Z,101015.50
2023-04-27T22:58:49.719Z,101013.16
2023-04-27T23:01:16.979Z,101011.88
2023-04-27T23:03:45.288Z,101004.75
2023-04-27T23:06:15.463Z,100994.81
2023-04-27T23:08:44.739Z,100985.56
2023-04-27T23:11:13.848Z,100979.25
2023-04-27T23:13:40.841Z,100973.56
2023-04-27T23:16:10.042Z,100953.28
2023-04-27T23:18:37.212Z,100932.47
2023-04-27T23:21:04.261Z,100920.88
2023-04-27T23:23:31.283Z,100925.16
2023-04-27T23:25:58.196Z,100905.34
2023-04-27T23:28:25.195Z,100893.72
2023-04-27T23:30:54.451Z,100890.44
2023-04-27T23:33:22.093Z,100897.34
2023-04-27T23:35:49.051Z,100894.50
2023-04-27T23:38:16.025Z,100894.31
2023-04-27T23:40:43.011Z,100880.34
2023-04-27T23:43:09.945Z,100887.13
2023-04-27T23:45:36.902Z,100873.25
2023-04-27T23:48:04.167Z,100857.94
2023-04-27T23:50:31.258Z,100841.09
2023-04-27T23:52:58.148Z,100845.97
2023-04-27T23:55:25.323Z,100855.38
2023-04-27T23:57:52.535Z,100862.28
